Saturday, October 25, 2014
10:18 UTC
  |  Log In   |  Register Free
Airport Search:

Kingsville Nas Airport
(KNQI)

FAA data valid effective September 18, 2014 - November 13, 2014 (unless otherwise noted).

 
 
 
 
 
 
 
 
 
 
 
 
 
 

Current Aviation Weather for Kingsville Nas Airport (KNQI)

The most recent METAR observation for KNQI was updated at: 1014
METAR Summary (Translated METAR)
KNQI
250956Z AUTO 30003KT 10SM CLR 16/15 A3012 RMK AO2 SLP197 T01610150
KRBO
242350Z AUTO 11007KT 5SM +RA CLR 27/16 A3008 RMK AO2 T02650157 10298 20265
(17.5 nm NE from KNQI)
KALI
250953Z AUTO 10SM CLR 18/15 A3012 RMK AO2 SLP197 T01780150
(18.2 nm NW from KNQI)
TAF Summary (Translated TAF)
KNQI
2507/2607 VRB04KT 9999 SKC QNH3008INS TEMPO 2509/2514 6000 BR FEW020 FM252200 12006KT 9999 SKC QNH3004INS AUTOMATED SENSOR METWATCH 2507 TIL 2620 T16/2511Z T32/2520Z FN00070
KALI
(18.2 nm NW from KNQI)
250520Z 2506/2606 VRB05KT P6SM SKC TEMPO 2512/2514 5SM BR FM252100 12007KT P6SM SKC
  Airport Weather Conditions for KNQI

 Current Weather at NQI
61° F
Fair
Northwest winds at 3.5 mph
NQI NOAA Radar

Pressure: 30.12 in
Humidity: 93%
Wind: Northwest at 3.5 MPH (3 KT)
Dew Point: 59.0°F
Visibility: 10.00 mi


Airport Weather Forecast for KNQI

Translated METAR and TAF for KNQI
Translated METAR for KNQI (1013 UTC 25 October 2014)
found at http://aviationweather.gov/adds/metars/
 
METAR text: KNQI 250956Z AUTO 30003KT 10SM CLR 16/15 A3012 RMK AO2 SLP197 T01610150
Conditions at: KNQI (KINGSVILLE NAS , TX, US) observed 0956 UTC 25 October 2014
Temperature: 16.1°C (61°F)
Dewpoint: 15.0°C (59°F) [RH = 93%]
Pressure (altimeter): 30.12 inches Hg (1020.1 mb)
[Sea-level pressure: 1019.7 mb]
Winds: from the WNW (300 degrees) at 3 MPH (3 knots; 1.6 m/s)
Visibility: 10 or more miles (16+ km)
Ceiling: at least 12,000 feet AGL
Clouds: sky clear below 12,000 feet AGL
Weather: automated observation with no human augmentation;
there may or may not be significant weather present at this time
Translated TAF for KNQI
Forecast for: KNQI (KINGSVILLE NAS , TX, US)
TAF Text: TAF KNQI 2507/2607 VRB04KT 9999 SKC QNH3008INS
Forecast period: 0700 to 2200 UTC 25 October 2014
Forecast type: FROM: standard forecast or significant change
Winds: variable direction winds at 5 MPH (4 knots; 2.1 m/s)
Visibility: 6 or more miles (10+ km)
Clouds: clear skies
Weather: no significant weather forecast for this period
TAF Text: TEMPO 2509/2514 6000 BR FEW020
Forecast period: 0900 to 1400 UTC 25 October 2014
Forecast type: TEMPORARY: The following changes expected for less than half the time period
Visibility: 4 miles (6 km)
Clouds: few clouds at 2000 feet AGL
Weather: BR  (mist)
TAF Text: FM252200 12006KT 9999 SKC QNH3004INS AUTOMATED SENSOR METWATCH 2507 TIL 2620 T16/2511Z T32/2520Z FN00070
Forecast period: 2200 UTC 25 October 2014 to 0700 UTC 26 October 2014
Forecast type: FROM: standard forecast or significant change
Winds: from the ESE (120 degrees) at 7 MPH (6 knots; 3.1 m/s)
Visibility: 6 or more miles (10+ km)
Clouds: clear skies
Weather: no significant weather forecast for this period

Find All Airport Services Find A Hotel Find A Rental Car Find A Golf Course Find A Restaurant $100 Hamburger



FBO's on the Field
FBO Company Facility Photos Services Transportation Aviation Fuel Prices: Prices include tax
Catering Weather Repair Courtesy Rental Type 100LL JetA JetA+ MOGAS 8087
 
Add another FBO Facility Photos Catering Weather Repair Courtesy Rental Type 100LL JetA JetA+ MOGAS 8087
Services Transportation Aviation Fuel Prices: Prices include tax
There are no FBO's currently reporting fuel at NQI. List your FBO now


model-print
model-print
model-print
model-print